William P Hobby Airport
KHOU : now visible

Airfield :











YOU CAN JOIN US ON...

 
LOGIN :

Register | Disclaimer

   EN    FR    IT 

 









Legend :    VFR   Marginal VFR   IFR   Intensive IFR   Very Intensive IFR
Visi :
Ceiling :
>= 8 km
>= 3000ft
5 to 8 km
1000 to 3000 ft
1500m to 5 km
500 to 1000 ft
800 to 1500m
200 to 500 ft
< 800m
< 200 ft
Symbols :   Thunderstorms  Fog  Heavy snow  Heavy precipitations  Wind > 20 kt






- Airport Elevation : 46 ft
- IATA code : HOU


KHOU - William P Hobby

CURRENT METAR :
  • 181753Z 10009KT 10SM FEW025 FEW050 OVC080 28/21 A2985 RMK AO2 PK WND 08036/1717 RAB23E39 SLP111 P0000 60000 T02830211 10328 20272 53003

EXPIRED METARs :
  • 181653Z 10015G26KT 10SM SCT025 SCT120 32/24 A2984 RMK AO2 PK WND 09026/1647 SLP107 T03220239
  • 181553Z 10016G26KT 10SM SCT025 SCT120 32/24 A2983 RMK AO2 PK WND 07026/1545 SLP104 T03220239
  • 181453Z 09014G23KT 10SM SCT022 SCT120 31/24 A2984 RMK AO2 SLP108 T03060239 51014
  • 181353Z 09015G21KT 10SM SCT025 SCT120 30/24 A2983 RMK AO2 SLP104 T03000239

TAF KHOU
Valid from the 18 at 18:00 until the 19 at 18:00 UTC


181730Z 1818/1918 10014G26KT P6SM VCSH SCT025 SCT120
FM190200 08019G27KT 6SM -SHRA BR OVC025
FM190700 07020G30KT 4SM SHRA BR VCTS BKN015CB
FM191600 07018G28KT 4SM SHRA BR VCTS OVC015CB
KZHU FIR / North America



MET'MAP, your aeronautical weather chart ! - Copyright ORBIFLY December 2007 - Disclaimer

ORBIFLY MET'MAP TEAM :

Programming & Development : Alexandra Zaïnal
Original concept : Baudouin d'Aumeries
Technical & hardware support : Manuel Goepfert
Assistance : Marc-Olivier Méhu




SOURCES & CREDITS :

   NOAA       Earth
Advisory